Luverne, North Dakota
Current Conditions -  °F | °C
As of 6:15 PM on Saturday 20 Dec 2014 (Local Time) from KBAC Reporting Station
Haze Haze  
Wind Chill: 15°   Ceiling: 400
Heat Index: 27°   Visibility: 5mi
Dew Point: 27°   Wind: 15mph
Humidity: 100%   Direction: 180°S
Pressure: 29.89"   Gusts: NA
Location:  47.25°N, 97.93°W
Report Text: KBAC 210015Z AUTO 18013KT 5SM BR OVC004 M03/M03 A2989 RMK AO2
Loading
Personal Weather Stations






























Interactive Weather Map New forecast layout! Learn more

10-Day Weather Forecast

Advertisements
Track Severe Weather on mobile